Ellensburg, WA

1:22 AM PST on December 22, 2014 (GMT -0800)
Vagabond Aaf / Yakim | Change Station
CLOSE
Current Station
Airport
Location: Vagabond Aaf / Yakim,
Elevation: 1371 ft
Nearby Weather Stations

Elev 1371 ft 46.67 °N, 120.45 °W | Updated 26 minutes ago

Overcast
Overcast
43 °F
Feels Like 40 °F
N
5
Wind Variable Wind from ESE

Today
High -- | Low -- °F
--% Chance of Precip.
Yesterday
High -- | Low -- °F
Precip. -- in
7:45 AM 4:16 PM
New Moon, 0% visible
Pressure 30.08 in
Visibility 10.0 miles
Clouds Few 10000 ft
Few 12000 ft
Mostly Cloudy 15000 ft
Windchill 40 °F
Dew Point 35 °F
Humidity 73%
Rainfall 0.00 in
Snow Depth Not available.
UV 0 out of 12
Pollen .50 out of 12
Air Quality Not available.
Flu Activity Not available.
METAR K1YT 220856Z AUTO 12004KT 10SM FEW100 FEW120 BKN150 06/02 A3008 RMK AO2 SLPNO T00620016 51007

More Conditions Fewer Conditions

Pressure 30.08 in
Visibility 10.0 miles
Clouds Few 10000 ft
Few 12000 ft
Mostly Cloudy 15000 ft
Windchill 40 °F
Dew Point 35 °F
Humidity 73%
Rainfall 0.00 in
Snow Depth Not available.
UV 0 out of 12
Pollen .50 out of 12
Air Quality Not available.
Flu Activity Not available.
METAR K1YT 220856Z AUTO 12004KT 10SM FEW100 FEW120 BKN150 06/02 A3008 RMK AO2 SLPNO T00620016 51007

More Conditions Fewer Conditions

10-Day Weather Forecast

Almanac

Astronomy

Dec. 22, 2014 Rise Set
Actual Time
Civil Twilight
Nautical Twilight
Astronomical Twilight
Moon
Length of Visible Light
Length of Day
Tomorrow will be .
, % of the Moon is Illuminated

Today's Extremes

State Highs State Lows

Community

WunderPhotos

Upload Photos

1,779,580 photos uploaded!

WunderBlogs® & News

Nearby

Air Quality

  Air Quality AQ Index Pollutant
Not available.

Snow Depth

Station Depth Elevation

Earthquake Activity

City Distance Mag. Time & Date
Minimum magnitude displayed is 2.5.

Coastal Water Temperatures

Place Temperature

Nearby Weather Stations